Time;durP1;ratioP1;P1;durP2;ratioP2;P2;SDS_P1;SDS_P2;PMS_P1;PMS_P2;Temp;Humidity;BMP_temperature;BMP_pressure;BME280_temperature;BME280_humidity;BME280_pressure;Samples;Min_cycle;Max_cycle;Signal;HPM_P1;HPM_P2
2023/07/21 00:00:00;;;;;;;3.55;1.60;;;23.40;45.20;;;;;;4975975;28;20236;-81
2023/07/21 00:02:29;;;;;;;1.80;1.70;;;23.40;45.30;;;;;;4974142;28;20218;-81
2023/07/21 00:04:56;;;;;;;1.70;1.60;;;23.40;45.30;;;;;;4976786;28;20202;-80
2023/07/21 00:07:24;;;;;;;2.22;1.60;;;23.40;45.30;;;;;;4978675;28;20197;-80
2023/07/21 00:09:52;;;;;;;1.80;1.70;;;23.40;45.20;;;;;;4978541;28;20293;-80
2023/07/21 00:12:19;;;;;;;1.67;1.58;;;23.40;45.90;;;;;;4978552;28;20190;-80
2023/07/21 00:14:46;;;;;;;1.70;1.60;;;23.40;45.50;;;;;;4978096;28;20202;-80
2023/07/21 00:17:13;;;;;;;1.98;1.63;;;23.40;45.40;;;;;;4962542;28;20206;-80
2023/07/21 00:19:44;;;;;;;1.75;1.65;;;23.40;45.40;;;;;;4978336;28;20201;-80
2023/07/21 00:22:11;;;;;;;3.20;1.65;;;23.40;45.40;;;;;;4979453;28;20217;-80
2023/07/21 00:24:38;;;;;;;1.85;1.70;;;23.40;45.50;;;;;;4978857;28;20658;-80
2023/07/21 00:27:07;;;;;;;2.03;1.83;;;23.40;45.60;;;;;;4978451;28;20206;-80
2023/07/21 00:29:34;;;;;;;1.80;1.70;;;23.40;45.60;;;;;;4977721;28;20202;-80
2023/07/21 00:32:02;;;;;;;1.90;1.80;;;23.40;45.70;;;;;;4977648;28;20701;-80
2023/07/21 00:34:29;;;;;;;1.58;1.48;;;23.30;45.50;;;;;;4977838;28;20198;-80
2023/07/21 00:36:58;;;;;;;1.80;1.70;;;23.30;46.10;;;;;;4977485;28;20236;-80
2023/07/21 00:39:26;;;;;;;2.20;1.70;;;23.40;45.70;;;;;;4977698;28;20269;-80
2023/07/21 00:41:53;;;;;;;1.92;1.73;;;23.30;45.60;;;;;;4983747;28;20241;-80
2023/07/21 00:44:21;;;;;;;1.95;1.70;;;23.30;45.60;;;;;;4983833;28;20293;-80
2023/07/21 00:46:49;;;;;;;1.60;1.50;;;23.30;45.70;;;;;;4983857;28;20205;-80
2023/07/21 00:49:16;;;;;;;2.13;1.80;;;23.30;45.70;;;;;;4982990;28;20206;-80
2023/07/21 00:51:44;;;;;;;2.00;1.90;;;23.30;45.70;;;;;;4982304;28;20214;-80
2023/07/21 00:54:13;;;;;;;2.13;1.92;;;23.30;45.70;;;;;;4981698;28;20191;-80
2023/07/21 00:56:42;;;;;;;1.77;1.67;;;23.30;45.60;;;;;;4977681;28;20634;-80
2023/07/21 00:59:11;;;;;;;2.05;1.83;;;23.30;45.60;;;;;;4978495;28;20182;-80
2023/07/21 01:01:39;;;;;;;2.13;1.70;;;23.30;45.60;;;;;;4976810;28;20562;-80
2023/07/21 01:04:07;;;;;;;1.90;1.75;;;23.30;45.70;;;;;;4977280;28;20202;-80
2023/07/21 01:06:34;;;;;;;1.70;1.60;;;23.30;45.70;;;;;;4977058;28;20197;-80
2023/07/21 01:09:02;;;;;;;1.83;1.70;;;23.30;45.70;;;;;;4976981;28;20689;-80
2023/07/21 01:11:30;;;;;;;2.15;1.90;;;23.30;45.70;;;;;;4980588;28;20221;-80
2023/07/21 01:13:57;;;;;;;1.70;1.60;;;23.20;45.50;;;;;;4983250;28;20198;-80
2023/07/21 01:16:25;;;;;;;1.80;1.70;;;23.30;45.60;;;;;;4982077;28;20230;-80
2023/07/21 01:18:52;;;;;;;2.20;2.00;;;23.30;45.60;;;;;;4983890;28;20209;-80
2023/07/21 01:21:25;;;;;;;2.00;1.80;;;23.30;45.70;;;;;;4984468;28;20307;-80
2023/07/21 01:23:57;;;;;;;1.80;1.70;;;23.30;45.50;;;;;;4986307;28;20548;-80
2023/07/21 01:26:26;;;;;;;2.05;1.80;;;23.30;45.60;;;;;;4977965;28;20205;-80
2023/07/21 01:28:53;;;;;;;2.00;1.90;;;23.30;45.70;;;;;;4976748;28;20253;-80
2023/07/21 01:31:20;;;;;;;2.22;1.92;;;23.30;45.70;;;;;;4976555;28;20218;-80
2023/07/21 01:33:47;;;;;;;1.83;1.73;;;23.30;45.80;;;;;;4976615;28;20226;-80
2023/07/21 01:36:15;;;;;;;2.20;2.00;;;23.30;45.80;;;;;;4976527;28;20194;-80
2023/07/21 01:38:42;;;;;;;1.92;1.83;;;23.20;45.80;;;;;;4977242;28;20210;-80
2023/07/21 01:41:12;;;;;;;1.77;1.67;;;23.30;45.90;;;;;;4963255;28;20268;-80
2023/07/21 01:43:40;;;;;;;1.80;1.70;;;23.30;45.90;;;;;;4980536;28;20228;-80
2023/07/21 01:46:10;;;;;;;2.22;1.83;;;23.30;45.90;;;;;;4981460;28;20209;-80
2023/07/21 01:48:38;;;;;;;2.00;1.80;;;23.20;45.90;;;;;;4981971;28;20198;-80
2023/07/21 01:51:05;;;;;;;2.13;1.92;;;23.20;46.00;;;;;;4962837;28;20301;-80
2023/07/21 01:53:33;;;;;;;2.88;1.95;;;23.20;46.10;;;;;;4976427;28;20195;-80
2023/07/21 01:56:03;;;;;;;2.28;2.08;;;23.20;46.10;;;;;;4976489;28;20198;-80
2023/07/21 01:58:30;;;;;;;3.92;1.92;;;23.20;46.10;;;;;;4976440;28;20210;-81
2023/07/21 02:00:59;;;;;;;3.03;1.80;;;23.20;46.20;;;;;;4976984;28;20225;-80
2023/07/21 02:03:26;;;;;;;2.35;1.90;;;23.20;46.20;;;;;;4978398;28;20222;-80
2023/07/21 02:05:54;;;;;;;2.10;1.70;;;23.20;46.30;;;;;;4975951;28;20680;-81
2023/07/21 02:08:21;;;;;;;2.10;1.90;;;23.20;46.40;;;;;;4976127;28;20205;-81
2023/07/21 02:10:49;;;;;;;2.00;1.80;;;23.10;46.30;;;;;;4975870;28;20217;-81
2023/07/21 02:13:40;;;;;;;1.80;1.70;;;23.20;46.50;;;;;;4976493;28;20191;-81
2023/07/21 02:16:09;;;;;;;2.28;1.80;;;23.10;46.40;;;;;;4976068;28;20226;-81
2023/07/21 02:18:36;;;;;;;1.95;1.75;;;23.20;46.50;;;;;;4975461;28;20209;-81
2023/07/21 02:21:03;;;;;;;2.13;1.77;;;23.10;46.40;;;;;;4975416;28;20685;-81
2023/07/21 02:23:31;;;;;;;2.08;1.75;;;23.10;46.40;;;;;;4975781;28;20226;-81
2023/07/21 02:25:59;;;;;;;2.92;1.98;;;23.10;46.60;;;;;;4975842;28;20230;-81
2023/07/21 02:28:26;;;;;;;2.03;1.70;;;23.10;46.60;;;;;;4975785;28;20298;-80
2023/07/21 02:31:02;;;;;;;2.17;1.90;;;23.10;46.60;;;;;;4985762;28;20715;-80
2023/07/21 02:33:31;;;;;;;2.13;1.92;;;23.10;46.60;;;;;;4977826;28;20228;-80
2023/07/21 02:35:58;;;;;;;2.50;1.63;;;23.10;47.20;;;;;;4977018;28;20229;-80
2023/07/21 02:38:25;;;;;;;2.10;1.90;;;23.10;46.70;;;;;;4976089;28;20225;-80
2023/07/21 02:40:52;;;;;;;1.83;1.73;;;23.10;46.80;;;;;;4975352;28;20647;-80
2023/07/21 02:43:20;;;;;;;2.25;1.88;;;23.10;46.80;;;;;;4975687;28;20265;-82
2023/07/21 02:45:51;;;;;;;2.25;1.80;;;23.10;46.90;;;;;;4975815;28;20198;-82
2023/07/21 02:48:18;;;;;;;2.20;2.00;;;23.10;46.80;;;;;;4976401;28;20190;-82
2023/07/21 02:50:49;;;;;;;2.58;2.03;;;23.10;46.90;;;;;;4974827;28;20308;-81
2023/07/21 02:53:17;;;;;;;4.35;1.80;;;23.10;46.90;;;;;;4975485;28;20198;-81
2023/07/21 02:55:44;;;;;;;1.90;1.80;;;23.10;46.90;;;;;;4975005;28;20194;-81
2023/07/21 02:58:12;;;;;;;2.65;1.92;;;23.00;46.80;;;;;;4959293;28;20289;-81
2023/07/21 03:00:40;;;;;;;2.70;1.80;;;23.00;47.00;;;;;;4958803;28;20272;-81
2023/07/21 03:03:18;;;;;;;1.90;1.80;;;23.00;46.90;;;;;;4975614;28;20214;-81
2023/07/21 03:05:50;;;;;;;2.17;1.90;;;23.00;47.00;;;;;;4975166;28;20202;-81
2023/07/21 03:08:28;;;;;;;2.15;1.80;;;23.00;47.00;;;;;;4974840;28;20198;-81
2023/07/21 03:10:57;;;;;;;2.15;1.95;;;23.00;47.50;;;;;;4977203;28;20218;-81
2023/07/21 03:13:26;;;;;;;2.15;1.88;;;23.00;47.00;;;;;;4980849;28;20216;-81
2023/07/21 03:15:53;;;;;;;1.90;1.80;;;23.00;47.10;;;;;;4986233;28;20233;-81
2023/07/21 03:18:26;;;;;;;2.10;1.90;;;23.00;47.20;;;;;;4993795;28;20273;-80
2023/07/21 03:21:16;;;;;;;1.80;1.70;;;23.00;47.20;;;;;;4975158;28;20708;-81
2023/07/21 03:23:45;;;;;;;2.55;2.03;;;23.10;47.20;;;;;;4974938;28;20299;-81
2023/07/21 03:26:16;;;;;;;1.88;1.50;;;23.10;47.00;;;;;;4974661;28;20206;-81
2023/07/21 03:28:43;;;;;;;2.65;1.90;;;23.20;47.00;;;;;;4975603;28;20236;-81
2023/07/21 03:31:11;;;;;;;2.95;1.90;;;23.20;46.70;;;;;;4974664;28;20225;-82
2023/07/21 03:33:58;;;;;;;2.00;1.80;;;23.20;46.70;;;;;;4974901;28;20188;-82
2023/07/21 03:36:29;;;;;;;2.80;1.98;;;23.30;46.90;;;;;;4974793;28;20229;-82
2023/07/21 03:38:56;;;;;;;2.40;2.20;;;23.30;46.80;;;;;;4974514;28;20216;-82
2023/07/21 03:41:23;;;;;;;2.28;1.92;;;23.20;46.60;;;;;;4974918;28;20213;-82
2023/07/21 03:43:51;;;;;;;4.43;2.05;;;23.30;46.60;;;;;;4974779;28;20217;-82
2023/07/21 03:46:19;;;;;;;1.92;1.83;;;23.30;46.60;;;;;;4975156;28;20274;-81
2023/07/21 03:49:12;;;;;;;2.13;1.80;;;23.30;46.50;;;;;;4960968;28;20561;-81
2023/07/21 03:51:45;;;;;;;2.40;1.98;;;23.30;46.70;;;;;;4975389;28;20229;-81
2023/07/21 03:54:15;;;;;;;2.10;1.90;;;23.30;46.70;;;;;;4974970;28;20186;-81
2023/07/21 03:56:43;;;;;;;2.40;2.20;;;23.30;46.60;;;;;;4974402;28;20201;-81
2023/07/21 03:59:11;;;;;;;2.13;1.70;;;23.40;46.70;;;;;;4974546;28;20190;-81
2023/07/21 04:01:38;;;;;;;1.98;1.83;;;23.40;46.70;;;;;;4974823;28;20218;-81
2023/07/21 04:04:07;;;;;;;2.40;1.85;;;23.40;46.60;;;;;;4974839;28;20222;-81
2023/07/21 04:06:34;;;;;;;2.97;1.98;;;23.40;46.60;;;;;;4974164;28;20198;-81
2023/07/21 04:09:03;;;;;;;2.20;2.00;;;23.40;46.60;;;;;;4974524;28;20198;-81
2023/07/21 04:11:31;;;;;;;3.05;2.00;;;23.40;46.50;;;;;;4974198;28;20214;-81
2023/07/21 04:13:59;;;;;;;2.38;1.92;;;23.40;46.50;;;;;;4974042;28;20198;-81
2023/07/21 04:16:26;;;;;;;2.03;1.85;;;23.40;46.70;;;;;;4958291;28;20630;-81
2023/07/21 04:18:54;;;;;;;1.70;1.60;;;23.40;46.60;;;;;;4973831;28;20678;-81
2023/07/21 04:21:21;;;;;;;1.98;1.80;;;23.40;46.40;;;;;;4974071;28;20229;-81
2023/07/21 04:23:48;;;;;;;2.45;1.92;;;23.40;46.40;;;;;;4973778;28;20301;-81
2023/07/21 04:26:17;;;;;;;2.47;1.83;;;23.40;46.60;;;;;;4973843;28;20245;-82
2023/07/21 04:28:44;;;;;;;1.88;1.77;;;23.40;46.60;;;;;;4973841;28;20293;-82
2023/07/21 04:31:11;;;;;;;2.75;1.85;;;23.40;46.60;;;;;;4974409;28;20220;-82
2023/07/21 04:34:01;;;;;;;3.53;2.25;;;23.40;46.70;;;;;;4975359;28;20273;-80
2023/07/21 04:36:28;;;;;;;3.28;2.42;;;23.40;47.10;;;;;;4974888;28;20205;-79
2023/07/21 04:38:59;;;;;;;2.22;1.98;;;23.30;47.00;;;;;;4959171;28;20205;-79
2023/07/21 04:41:28;;;;;;;3.95;2.50;;;23.30;46.90;;;;;;4974665;28;20253;-79
2023/07/21 04:43:56;;;;;;;2.33;2.10;;;23.10;47.20;;;;;;4974143;28;20241;-78
2023/07/21 04:46:22;;;;;;;2.47;2.20;;;23.00;47.50;;;;;;4975435;28;20198;-78
2023/07/21 04:48:51;;;;;;;4.50;2.20;;;22.70;47.90;;;;;;4974135;28;20296;-78
2023/07/21 04:51:27;;;;;;;4.13;2.35;;;22.50;48.50;;;;;;4978113;28;20255;-79
2023/07/21 04:53:54;;;;;;;2.45;2.20;;;22.30;49.30;;;;;;4978130;28;20591;-79
2023/07/21 04:56:22;;;;;;;4.72;2.72;;;22.10;49.60;;;;;;4977174;28;20542;-79
2023/07/21 04:58:55;;;;;;;3.88;2.30;;;22.00;49.50;;;;;;4977861;28;20265;-79
2023/07/21 05:01:22;;;;;;;2.97;2.45;;;22.10;49.50;;;;;;4976973;28;20241;-79
2023/07/21 05:03:49;;;;;;;2.78;2.30;;;22.20;49.30;;;;;;4976872;28;20218;-79
2023/07/21 05:06:17;;;;;;;5.07;2.10;;;22.30;49.30;;;;;;4976843;28;20287;-79
2023/07/21 05:08:47;;;;;;;2.00;1.80;;;22.40;49.20;;;;;;4977125;28;20708;-79
2023/07/21 05:11:15;;;;;;;2.40;2.20;;;22.40;49.10;;;;;;4976740;28;20268;-79
2023/07/21 05:13:44;;;;;;;2.60;2.40;;;22.50;48.90;;;;;;4977125;28;20296;-79
2023/07/21 05:16:17;;;;;;;2.58;2.20;;;22.50;49.00;;;;;;4961509;28;20610;-80
2023/07/21 05:19:23;;;;;;;2.15;1.95;;;22.60;48.60;;;;;;4973834;28;20200;-80
2023/07/21 05:22:08;;;;;;;2.08;1.92;;;22.60;49.10;;;;;;4977449;28;20205;-81
2023/07/21 05:24:54;;;;;;;2.13;2.00;;;22.70;48.50;;;;;;4978041;28;20300;-81
2023/07/21 05:27:22;;;;;;;3.17;2.10;;;22.70;48.30;;;;;;4977244;28;20248;-81
2023/07/21 05:29:58;;;;;;;2.20;2.00;;;22.80;48.50;;;;;;4976822;28;20306;-81
2023/07/21 05:32:27;;;;;;;3.13;2.20;;;22.90;48.50;;;;;;4976820;28;20785;-80
2023/07/21 05:35:07;;;;;;;4.10;2.05;;;22.90;48.50;;;;;;4976525;28;20204;-80
2023/07/21 05:37:34;;;;;;;3.40;2.22;;;22.90;48.30;;;;;;4977721;28;20198;-80
2023/07/21 05:40:01;;;;;;;2.88;2.10;;;23.00;48.30;;;;;;4976352;28;20260;-80
2023/07/21 05:42:28;;;;;;;3.78;2.35;;;23.00;48.20;;;;;;4976163;28;20198;-78
2023/07/21 05:44:58;;;;;;;2.42;2.17;;;23.00;48.10;;;;;;4975948;28;20213;-80
2023/07/21 05:47:25;;;;;;;4.05;2.20;;;23.10;48.10;;;;;;4977196;28;20657;-80
2023/07/21 05:50:00;;;;;;;2.65;2.10;;;23.10;48.10;;;;;;4976276;28;20253;-80
2023/07/21 05:52:28;;;;;;;4.25;2.08;;;23.10;48.00;;;;;;4976784;28;20194;-80
2023/07/21 05:54:56;;;;;;;3.47;2.13;;;23.20;48.00;;;;;;4976562;28;20241;-80
2023/07/21 05:57:28;;;;;;;2.95;1.90;;;23.30;47.90;;;;;;4967712;28;20241;-80
2023/07/21 05:59:56;;;;;;;3.17;2.25;;;23.40;47.70;;;;;;4976805;28;20222;-80
2023/07/21 06:02:23;;;;;;;3.17;2.38;;;23.50;47.60;;;;;;4975915;28;20607;-80
2023/07/21 06:04:57;;;;;;;2.45;2.20;;;23.70;47.20;;;;;;4961040;28;20245;-80
2023/07/21 06:07:44;;;;;;;3.67;2.13;;;23.90;46.80;;;;;;4975843;28;20201;-80
2023/07/21 06:10:30;;;;;;;2.65;2.38;;;24.20;46.30;;;;;;4975951;28;20242;-80
2023/07/21 06:13:14;;;;;;;2.30;2.10;;;24.40;45.90;;;;;;4976541;28;20705;-79
2023/07/21 06:16:00;;;;;;;3.40;1.90;;;24.50;45.60;;;;;;4976781;28;20185;-79
2023/07/21 06:18:35;;;;;;;2.28;1.70;;;24.50;45.50;;;;;;4975693;28;20194;-79
2023/07/21 06:21:04;;;;;;;2.40;1.95;;;24.60;45.30;;;;;;4976142;28;20316;-79
2023/07/21 06:23:31;;;;;;;2.90;1.80;;;24.70;45.20;;;;;;4976365;28;20198;-79
2023/07/21 06:25:58;;;;;;;3.67;2.00;;;24.80;45.10;;;;;;4959963;28;20668;-79
2023/07/21 06:28:25;;;;;;;3.80;1.80;;;24.80;45.10;;;;;;4975635;28;20612;-79
2023/07/21 06:30:52;;;;;;;3.72;1.90;;;24.90;45.00;;;;;;4975656;28;20218;-79
2023/07/21 06:33:45;;;;;;;2.22;2.00;;;24.90;44.80;;;;;;4975607;28;20199;-79
2023/07/21 06:36:32;;;;;;;2.78;2.00;;;25.00;44.80;;;;;;4976890;28;20258;-79
2023/07/21 06:39:22;;;;;;;2.10;1.90;;;25.00;44.70;;;;;;4975522;28;20201;-79
2023/07/21 06:42:24;;;;;;;2.65;1.92;;;25.00;44.70;;;;;;4963409;28;20669;-79
2023/07/21 06:45:11;;;;;;;2.55;1.98;;;25.00;44.70;;;;;;4976438;28;20214;-79
2023/07/21 06:47:57;;;;;;;3.38;1.90;;;25.00;44.80;;;;;;4977382;28;20652;-79
2023/07/21 06:50:37;;;;;;;2.30;2.10;;;24.90;44.60;;;;;;4976100;28;20229;-79
2023/07/21 06:53:06;;;;;;;2.25;2.00;;;24.90;44.90;;;;;;4976343;28;20224;-79
2023/07/21 06:55:33;;;;;;;2.58;2.03;;;24.90;44.80;;;;;;4975877;28;20202;-79
2023/07/21 06:58:01;;;;;;;3.28;1.70;;;24.90;44.80;;;;;;4976445;28;20210;-79
2023/07/21 07:00:28;;;;;;;2.92;1.92;;;25.00;44.80;;;;;;4975758;28;20252;-79
2023/07/21 07:02:56;;;;;;;2.22;1.90;;;25.00;44.60;;;;;;4975261;28;20220;-79
2023/07/21 07:05:24;;;;;;;1.85;1.70;;;25.10;44.50;;;;;;4975024;28;20224;-79
2023/07/21 07:07:52;;;;;;;2.08;1.88;;;25.10;44.40;;;;;;4974976;28;20248;-79
2023/07/21 07:10:23;;;;;;;2.90;2.20;;;25.10;44.30;;;;;;4974830;28;20241;-79
2023/07/21 07:12:51;;;;;;;2.35;1.80;;;25.30;44.30;;;;;;4974686;28;20700;-79
2023/07/21 07:15:18;;;;;;;2.22;1.80;;;25.40;44.10;;;;;;4958663;28;20669;-79
2023/07/21 07:17:45;;;;;;;2.28;1.85;;;25.50;43.80;;;;;;4974767;28;20198;-79
2023/07/21 07:20:12;;;;;;;2.20;1.70;;;25.70;43.50;;;;;;4975623;28;20222;-79
2023/07/21 07:22:42;;;;;;;2.75;1.90;;;25.90;43.20;;;;;;4975306;28;20252;-81
2023/07/21 07:25:10;;;;;;;2.13;1.83;;;26.00;42.80;;;;;;4974751;28;20588;-80
2023/07/21 07:27:42;;;;;;;2.40;1.83;;;26.10;42.60;;;;;;4974729;28;20206;-81
2023/07/21 07:30:12;;;;;;;2.25;2.05;;;26.20;42.50;;;;;;4975137;28;20281;-81
2023/07/21 07:32:39;;;;;;;2.42;1.88;;;26.20;42.50;;;;;;4974384;28;20214;-81
2023/07/21 07:35:07;;;;;;;1.95;1.85;;;26.10;42.60;;;;;;4974308;28;20202;-80
2023/07/21 07:37:34;;;;;;;2.15;1.95;;;26.10;42.70;;;;;;4974139;28;20202;-81
2023/07/21 07:40:01;;;;;;;2.55;1.70;;;26.00;42.70;;;;;;4974383;28;20212;-80
2023/07/21 07:42:28;;;;;;;2.60;2.10;;;26.00;42.80;;;;;;4973998;28;20200;-80
2023/07/21 07:44:59;;;;;;;2.47;2.28;;;25.90;42.90;;;;;;4974044;28;20217;-81
2023/07/21 07:47:26;;;;;;;1.90;1.80;;;25.90;42.90;;;;;;4958786;28;20205;-79
2023/07/21 07:49:53;;;;;;;2.30;1.98;;;25.90;42.80;;;;;;4973784;28;20198;-81
2023/07/21 07:52:20;;;;;;;1.90;1.80;;;25.90;42.70;;;;;;4974494;28;20202;-81
2023/07/21 07:54:49;;;;;;;2.10;1.90;;;26.00;42.70;;;;;;4973796;28;20284;-81
2023/07/21 07:57:17;;;;;;;3.35;1.85;;;26.10;42.50;;;;;;4973927;28;20264;-81
2023/07/21 07:59:44;;;;;;;2.20;2.00;;;26.30;42.20;;;;;;4973805;28;20206;-81
2023/07/21 08:02:13;;;;;;;3.20;1.98;;;26.40;42.00;;;;;;4974998;28;20600;-81
2023/07/21 08:04:40;;;;;;;1.70;1.60;;;26.50;41.70;;;;;;4973528;28;20597;-80
2023/07/21 08:07:07;;;;;;;3.40;1.85;;;26.50;41.60;;;;;;4973863;28;20575;-80
2023/07/21 08:09:34;;;;;;;1.98;1.77;;;26.60;41.50;;;;;;4957926;28;20623;-80
2023/07/21 08:12:01;;;;;;;1.80;1.70;;;26.60;41.40;;;;;;4974274;28;20221;-80
2023/07/21 08:14:29;;;;;;;2.47;2.15;;;26.60;41.30;;;;;;4973792;28;20288;-80
2023/07/21 08:16:56;;;;;;;2.35;2.15;;;26.70;41.30;;;;;;4974132;28;20205;-80
2023/07/21 08:19:24;;;;;;;1.85;1.70;;;26.70;41.20;;;;;;4975126;28;20284;-80
2023/07/21 08:21:51;;;;;;;2.00;1.80;;;26.80;41.10;;;;;;4975306;28;20284;-80
2023/07/21 08:24:17;;;;;;;2.55;1.85;;;26.90;40.90;;;;;;4973842;28;20217;-80
2023/07/21 08:26:44;;;;;;;1.67;1.58;;;27.00;40.60;;;;;;4978307;28;20189;-80
2023/07/21 08:29:12;;;;;;;1.83;1.73;;;27.20;40.50;;;;;;4978477;28;20652;-80
2023/07/21 08:31:39;;;;;;;1.95;1.80;;;27.20;40.30;;;;;;4961853;28;20240;-80
2023/07/21 08:34:06;;;;;;;2.10;1.90;;;27.30;40.20;;;;;;4977923;28;20201;-80
2023/07/21 08:36:34;;;;;;;2.10;1.80;;;27.30;40.20;;;;;;4978123;28;20292;-80
2023/07/21 08:39:01;;;;;;;1.70;1.60;;;27.30;40.10;;;;;;4978965;28;20618;-80
2023/07/21 08:41:28;;;;;;;2.00;1.80;;;27.30;40.20;;;;;;4978302;28;20217;-80
2023/07/21 08:43:55;;;;;;;1.75;1.65;;;27.30;40.10;;;;;;4978436;28;20205;-80
2023/07/21 08:46:22;;;;;;;1.85;1.75;;;27.30;40.10;;;;;;4978887;28;20264;-80
2023/07/21 08:48:49;;;;;;;1.92;1.83;;;27.30;40.10;;;;;;4978125;28;20204;-80
2023/07/21 08:51:16;;;;;;;1.85;1.60;;;27.30;40.20;;;;;;4977847;28;20209;-80
2023/07/21 08:53:44;;;;;;;1.60;1.50;;;27.30;40.20;;;;;;4977860;28;20610;-80
2023/07/21 08:56:12;;;;;;;1.80;1.70;;;27.30;40.10;;;;;;4977610;28;20652;-80
2023/07/21 08:58:39;;;;;;;1.80;1.70;;;27.40;39.90;;;;;;4962095;28;20296;-80
2023/07/21 09:01:09;;;;;;;1.80;1.70;;;27.50;39.90;;;;;;4978156;28;20751;-80
2023/07/21 09:03:36;;;;;;;2.55;2.00;;;27.60;39.60;;;;;;4978025;28;20201;-80
2023/07/21 09:06:02;;;;;;;1.75;1.60;;;27.70;39.40;;;;;;4978464;28;20276;-80
2023/07/21 09:08:30;;;;;;;1.70;1.60;;;27.80;39.30;;;;;;4977797;28;20208;-80
2023/07/21 09:11:00;;;;;;;1.80;1.70;;;27.90;39.10;;;;;;4977708;28;20591;-80
2023/07/21 09:13:27;;;;;;;2.25;1.70;;;28.00;38.90;;;;;;4977308;28;20615;-80
2023/07/21 09:15:54;;;;;;;1.70;1.60;;;28.10;38.80;;;;;;4977987;28;20214;-80
2023/07/21 09:18:26;;;;;;;1.70;1.60;;;28.10;38.60;;;;;;4978500;28;20256;-80
2023/07/21 09:20:53;;;;;;;1.80;1.70;;;28.20;38.50;;;;;;4961674;28;20234;-79
2023/07/21 09:23:21;;;;;;;2.72;1.75;;;28.20;38.30;;;;;;4977544;28;20198;-79
2023/07/21 09:25:53;;;;;;;2.40;1.70;;;28.30;38.30;;;;;;4985430;28;20241;-79
2023/07/21 09:28:22;;;;;;;3.10;1.80;;;28.30;38.20;;;;;;4978494;28;20205;-79
2023/07/21 09:30:50;;;;;;;1.90;1.70;;;28.30;38.10;;;;;;4978866;28;20224;-79
2023/07/21 09:33:21;;;;;;;2.05;1.60;;;28.30;38.00;;;;;;4983375;28;20209;-79
2023/07/21 09:35:49;;;;;;;2.20;1.70;;;28.40;38.00;;;;;;4982692;28;20192;-79
2023/07/21 09:38:16;;;;;;;1.70;1.60;;;28.40;38.00;;;;;;4982054;28;20198;-79
2023/07/21 09:40:43;;;;;;;1.88;1.70;;;28.40;38.00;;;;;;4982460;28;20217;-79
2023/07/21 09:43:10;;;;;;;1.85;1.70;;;28.40;37.90;;;;;;4981576;28;20197;-79
2023/07/21 09:45:38;;;;;;;1.80;1.65;;;28.50;37.80;;;;;;4981281;28;20587;-79
2023/07/21 09:48:06;;;;;;;1.80;1.70;;;28.50;37.90;;;;;;4981106;28;20661;-79
2023/07/21 09:50:34;;;;;;;1.80;1.70;;;28.50;37.90;;;;;;4980880;28;20220;-79
2023/07/21 09:53:01;;;;;;;1.60;1.50;;;28.50;38.30;;;;;;4979574;28;20198;-79
2023/07/21 09:55:28;;;;;;;1.70;1.60;;;28.50;37.90;;;;;;4976626;28;20248;-79
2023/07/21 09:57:55;;;;;;;1.40;1.30;;;28.50;37.90;;;;;;4977416;28;20201;-79
2023/07/21 10:00:26;;;;;;;1.80;1.70;;;28.50;37.90;;;;;;4961036;28;20222;-79
2023/07/21 10:02:55;;;;;;;1.70;1.60;;;28.50;37.90;;;;;;4976912;28;20649;-79
2023/07/21 10:05:23;;;;;;;2.58;1.58;;;28.50;37.90;;;;;;4976737;28;20232;-79
2023/07/21 10:07:50;;;;;;;1.80;1.70;;;28.50;37.90;;;;;;4961043;28;20288;-79
2023/07/21 10:10:17;;;;;;;1.95;1.75;;;28.50;37.90;;;;;;4977643;28;20688;-79
2023/07/21 10:12:49;;;;;;;1.70;1.50;;;28.50;38.20;;;;;;4977970;28;20193;-79
2023/07/21 10:15:16;;;;;;;1.98;1.77;;;28.40;38.00;;;;;;4976687;28;20202;-79
2023/07/21 10:17:44;;;;;;;1.75;1.65;;;28.40;38.70;;;;;;4976383;28;20201;-79
2023/07/21 10:20:14;;;;;;;1.52;1.42;;;28.40;38.10;;;;;;4976375;28;20252;-79
2023/07/21 10:22:41;;;;;;;1.50;1.40;;;28.30;38.10;;;;;;4976177;28;20201;-79
2023/07/21 10:25:08;;;;;;;1.65;1.50;;;28.30;38.80;;;;;;4976846;28;20590;-79
2023/07/21 10:27:35;;;;;;;1.60;1.50;;;28.30;38.30;;;;;;4975986;28;20201;-79
2023/07/21 10:30:20;;;;;;;1.60;1.50;;;28.20;38.40;;;;;;4978880;28;20229;-79
2023/07/21 10:32:48;;;;;;;1.67;1.50;;;28.10;38.50;;;;;;4979450;28;20193;-79
2023/07/21 10:35:37;;;;;;;2.90;1.92;;;28.10;38.60;;;;;;4979670;28;20198;-79
2023/07/21 10:38:27;;;;;;;1.63;1.40;;;28.00;38.70;;;;;;4978578;28;20229;-79
2023/07/21 10:40:54;;;;;;;2.40;1.70;;;28.00;38.90;;;;;;4976440;28;20248;-79
2023/07/21 10:43:21;;;;;;;1.38;1.27;;;28.00;39.00;;;;;;4976042;28;20324;-79
2023/07/21 10:45:53;;;;;;;1.80;1.50;;;27.90;39.00;;;;;;4975237;28;20301;-79
2023/07/21 10:48:22;;;;;;;1.45;1.35;;;27.90;39.00;;;;;;4975021;28;20206;-80
2023/07/21 10:50:54;;;;;;;1.60;1.50;;;27.90;39.00;;;;;;4974854;28;20220;-80
2023/07/21 10:53:23;;;;;;;1.63;1.52;;;27.90;39.20;;;;;;4974774;28;20542;-80
2023/07/21 10:55:52;;;;;;;1.77;1.67;;;27.80;39.20;;;;;;4974951;28;20193;-80
2023/07/21 10:58:19;;;;;;;1.60;1.50;;;27.80;39.30;;;;;;4975575;28;20210;-80
2023/07/21 11:00:47;;;;;;;1.90;1.55;;;27.80;39.20;;;;;;4974439;28;20218;-80
2023/07/21 11:03:14;;;;;;;1.65;1.52;;;27.80;39.30;;;;;;4975432;28;20193;-80
2023/07/21 11:05:41;;;;;;;1.60;1.50;;;27.80;39.30;;;;;;4974626;28;20221;-79
2023/07/21 11:08:13;;;;;;;1.70;1.60;;;27.70;39.30;;;;;;4974883;28;20642;-79
2023/07/21 11:10:40;;;;;;;1.90;1.70;;;27.70;39.40;;;;;;4975121;28;20268;-79
2023/07/21 11:13:07;;;;;;;1.60;1.50;;;27.70;39.50;;;;;;4974680;28;20205;-79
2023/07/21 11:15:38;;;;;;;1.75;1.65;;;27.70;39.50;;;;;;4974405;28;20260;-79
2023/07/21 11:18:05;;;;;;;1.50;1.40;;;27.70;39.50;;;;;;4974574;28;20683;-79
2023/07/21 11:20:32;;;;;;;2.10;1.45;;;27.70;39.60;;;;;;4974509;28;20557;-79
2023/07/21 11:23:00;;;;;;;1.90;1.80;;;27.60;39.60;;;;;;4975013;28;20197;-79
2023/07/21 11:25:28;;;;;;;1.80;1.70;;;27.60;39.60;;;;;;4974258;28;20217;-79
2023/07/21 11:27:55;;;;;;;1.45;1.35;;;27.70;39.70;;;;;;4974685;28;20292;-79
2023/07/21 11:30:23;;;;;;;1.48;1.38;;;27.70;39.60;;;;;;4974334;28;20217;-81
2023/07/21 11:33:07;;;;;;;1.50;1.40;;;27.70;39.60;;;;;;4974814;28;20198;-80
2023/07/21 11:35:34;;;;;;;1.73;1.60;;;27.70;39.70;;;;;;4974765;28;20288;-80
2023/07/21 11:38:01;;;;;;;1.55;1.45;;;27.70;39.70;;;;;;4974231;28;20724;-80
2023/07/21 11:40:33;;;;;;;1.85;1.55;;;27.70;39.70;;;;;;4975291;28;20320;-80
2023/07/21 11:43:00;;;;;;;1.88;1.77;;;27.60;39.80;;;;;;4974420;28;20194;-80
2023/07/21 11:45:37;;;;;;;1.50;1.40;;;27.60;39.80;;;;;;4974400;28;20623;-80
2023/07/21 11:48:12;;;;;;;1.40;1.30;;;27.60;39.80;;;;;;4974856;28;20199;-80
2023/07/21 11:50:41;;;;;;;1.60;1.50;;;27.60;39.80;;;;;;4974856;28;20275;-80
2023/07/21 11:53:09;;;;;;;1.45;1.20;;;27.60;39.90;;;;;;4976298;28;20265;-80
2023/07/21 11:55:37;;;;;;;1.63;1.52;;;27.60;40.00;;;;;;4974845;28;20197;-80
2023/07/21 11:58:04;;;;;;;1.70;1.60;;;27.50;40.10;;;;;;5027825;23;20263;-79
2023/07/21 12:00:32;;;;;;;1.60;1.50;;;27.50;40.10;;;;;;4996061;28;20220;-79
2023/07/21 12:03:01;;;;;;;1.50;1.40;;;27.40;40.10;;;;;;4996548;28;20205;-79
2023/07/21 12:05:29;;;;;;;1.65;1.55;;;27.40;40.20;;;;;;4981443;28;20698;-79
2023/07/21 12:07:55;;;;;;;1.60;1.50;;;27.40;40.30;;;;;;4997630;28;20204;-79
2023/07/21 12:10:23;;;;;;;1.50;1.40;;;27.30;40.30;;;;;;4965171;28;20259;-79
2023/07/21 12:12:52;;;;;;;1.55;1.45;;;27.30;40.40;;;;;;4996741;28;20239;-79
2023/07/21 12:15:19;;;;;;;1.55;1.45;;;27.30;40.40;;;;;;4997650;28;20201;-79
2023/07/21 12:17:47;;;;;;;1.70;1.60;;;27.20;40.50;;;;;;4997241;28;20211;-79
2023/07/21 12:20:16;;;;;;;1.60;1.40;;;27.30;40.50;;;;;;4980913;28;20394;-79
2023/07/21 12:22:43;;;;;;;1.77;1.67;;;27.20;40.50;;;;;;4997982;28;20211;-79
2023/07/21 12:25:11;;;;;;;1.70;1.60;;;27.20;40.50;;;;;;4996424;28;20206;-79
2023/07/21 12:27:39;;;;;;;1.70;1.60;;;27.20;40.60;;;;;;4981248;28;20255;-79
2023/07/21 12:30:09;;;;;;;1.50;1.40;;;27.20;40.70;;;;;;4997457;28;20260;-79
2023/07/21 12:32:36;;;;;;;1.58;1.48;;;27.20;40.90;;;;;;4998068;28;20259;-79
2023/07/21 12:35:04;;;;;;;1.70;1.60;;;27.20;41.10;;;;;;4981186;28;20255;-79
2023/07/21 12:37:33;;;;;;;1.50;1.40;;;27.20;41.20;;;;;;4997547;28;20193;-79
2023/07/21 12:40:01;;;;;;;2.00;1.50;;;27.20;41.40;;;;;;4995805;28;20277;-79
2023/07/21 12:42:29;;;;;;;1.60;1.50;;;27.20;41.50;;;;;;4978847;28;20231;-79
2023/07/21 12:44:56;;;;;;;1.70;1.60;;;27.10;41.50;;;;;;4995311;28;20612;-79
2023/07/21 12:47:28;;;;;;;1.63;1.52;;;27.10;41.70;;;;;;4979277;28;20221;-79
2023/07/21 12:49:54;;;;;;;2.05;1.80;;;27.10;41.80;;;;;;4996229;28;20189;-80
2023/07/21 12:52:22;;;;;;;1.60;1.50;;;27.10;41.90;;;;;;4996066;28;20283;-80
2023/07/21 12:54:48;;;;;;;1.70;1.60;;;27.10;41.90;;;;;;4996073;28;20247;-79
2023/07/21 12:57:16;;;;;;;1.70;1.60;;;27.00;41.90;;;;;;4996061;28;20279;-79
2023/07/21 12:59:43;;;;;;;1.95;1.58;;;27.00;42.00;;;;;;4995928;28;20208;-79